sensor_id;sensor_type;location;lat;lon;timestamp;pressure;altitude;pressure_sealevel;temperature;humidity
3917;BME280;1973;50.518;7.318;2023-04-07T00:00:27;100796.81;;;9.08;100.00
3917;BME280;1973;50.518;7.318;2023-04-07T00:02:53;100793.81;;;9.09;100.00
3917;BME280;1973;50.518;7.318;2023-04-07T00:05:20;100793.44;;;9.12;100.00
3917;BME280;1973;50.518;7.318;2023-04-07T00:07:46;100797.22;;;9.11;100.00
3917;BME280;1973;50.518;7.318;2023-04-07T00:10:22;100786.88;;;9.13;100.00
3917;BME280;1973;50.518;7.318;2023-04-07T00:12:49;100783.72;;;9.16;100.00
3917;BME280;1973;50.518;7.318;2023-04-07T00:15:16;100780.97;;;9.16;100.00
3917;BME280;1973;50.518;7.318;2023-04-07T00:17:42;100784.56;;;9.17;100.00
3917;BME280;1973;50.518;7.318;2023-04-07T00:20:09;100781.63;;;9.18;100.00
3917;BME280;1973;50.518;7.318;2023-04-07T00:22:36;100776.13;;;9.18;100.00
3917;BME280;1973;50.518;7.318;2023-04-07T00:25:03;100777.81;;;9.19;100.00
3917;BME280;1973;50.518;7.318;2023-04-07T00:27:29;100772.34;;;9.19;100.00
3917;BME280;1973;50.518;7.318;2023-04-07T00:29:56;100765.56;;;9.22;100.00
3917;BME280;1973;50.518;7.318;2023-04-07T00:32:22;100765.75;;;9.20;100.00
3917;BME280;1973;50.518;7.318;2023-04-07T00:34:49;100759.66;;;9.18;100.00
3917;BME280;1973;50.518;7.318;2023-04-07T00:37:15;100760.50;;;9.19;100.00
3917;BME280;1973;50.518;7.318;2023-04-07T00:39:42;100761.09;;;9.14;100.00
3917;BME280;1973;50.518;7.318;2023-04-07T00:42:09;100755.44;;;9.16;100.00
3917;BME280;1973;50.518;7.318;2023-04-07T00:44:36;100752.44;;;9.17;100.00
3917;BME280;1973;50.518;7.318;2023-04-07T00:47:02;100752.69;;;9.16;100.00
3917;BME280;1973;50.518;7.318;2023-04-07T00:49:29;100747.19;;;9.16;100.00
3917;BME280;1973;50.518;7.318;2023-04-07T00:51:57;100750.75;;;9.16;100.00
3917;BME280;1973;50.518;7.318;2023-04-07T00:54:24;100745.91;;;9.18;100.00
3917;BME280;1973;50.518;7.318;2023-04-07T00:56:51;100741.03;;;9.20;100.00
3917;BME280;1973;50.518;7.318;2023-04-07T00:59:18;100735.97;;;9.24;100.00
3917;BME280;1973;50.518;7.318;2023-04-07T01:02:15;100738.94;;;9.22;100.00
3917;BME280;1973;50.518;7.318;2023-04-07T01:04:46;100738.53;;;9.25;100.00
3917;BME280;1973;50.518;7.318;2023-04-07T01:07:23;100731.75;;;9.28;100.00
3917;BME280;1973;50.518;7.318;2023-04-07T01:09:54;100727.13;;;9.28;100.00
3917;BME280;1973;50.518;7.318;2023-04-07T01:12:38;100733.03;;;9.32;100.00
3917;BME280;1973;50.518;7.318;2023-04-07T01:15:11;100728.41;;;9.33;100.00
3917;BME280;1973;50.518;7.318;2023-04-07T01:17:50;100721.63;;;9.35;100.00
3917;BME280;1973;50.518;7.318;2023-04-07T01:20:20;100726.91;;;9.37;100.00
3917;BME280;1973;50.518;7.318;2023-04-07T01:22:56;100725.66;;;9.39;100.00
3917;BME280;1973;50.518;7.318;2023-04-07T01:28:45;100719.09;;;9.40;100.00
3917;BME280;1973;50.518;7.318;2023-04-07T01:31:16;100710.66;;;9.42;100.00
3917;BME280;1973;50.518;7.318;2023-04-07T01:33:44;100712.34;;;9.43;100.00
3917;BME280;1973;50.518;7.318;2023-04-07T01:36:12;100711.28;;;9.44;100.00
3917;BME280;1973;50.518;7.318;2023-04-07T01:38:39;100715.72;;;9.45;100.00
3917;BME280;1973;50.518;7.318;2023-04-07T01:41:08;100713.59;;;9.47;100.00
3917;BME280;1973;50.518;7.318;2023-04-07T01:43:36;100713.59;;;9.47;100.00
3917;BME280;1973;50.518;7.318;2023-04-07T01:46:04;100709.19;;;9.46;100.00
3917;BME280;1973;50.518;7.318;2023-04-07T01:48:31;100714.69;;;9.46;100.00
3917;BME280;1973;50.518;7.318;2023-04-07T01:50:58;100711.09;;;9.45;100.00
3917;BME280;1973;50.518;7.318;2023-04-07T01:53:26;100704.09;;;9.43;100.00
3917;BME280;1973;50.518;7.318;2023-04-07T01:55:53;100709.81;;;9.41;100.00
3917;BME280;1973;50.518;7.318;2023-04-07T01:58:19;100712.75;;;9.40;100.00
3917;BME280;1973;50.518;7.318;2023-04-07T02:00:47;100710.88;;;9.40;100.00
3917;BME280;1973;50.518;7.318;2023-04-07T02:03:35;100703.91;;;9.38;100.00
3917;BME280;1973;50.518;7.318;2023-04-07T02:06:06;100716.78;;;9.37;100.00
3917;BME280;1973;50.518;7.318;2023-04-07T02:08:38;100709.41;;;9.38;100.00
3917;BME280;1973;50.518;7.318;2023-04-07T02:11:09;100702.19;;;9.37;100.00
3917;BME280;1973;50.518;7.318;2023-04-07T02:13:39;100704.94;;;9.37;100.00
3917;BME280;1973;50.518;7.318;2023-04-07T02:16:07;100707.50;;;9.38;100.00
3917;BME280;1973;50.518;7.318;2023-04-07T02:18:35;100703.91;;;9.38;100.00
3917;BME280;1973;50.518;7.318;2023-04-07T02:21:03;100707.25;;;9.40;100.00
3917;BME280;1973;50.518;7.318;2023-04-07T02:23:34;100707.25;;;9.40;100.00
3917;BME280;1973;50.518;7.318;2023-04-07T02:26:01;100708.31;;;9.39;100.00
3917;BME280;1973;50.518;7.318;2023-04-07T02:28:27;100705.56;;;9.39;100.00
3917;BME280;1973;50.518;7.318;2023-04-07T02:30:54;100711.06;;;9.39;100.00
3917;BME280;1973;50.518;7.318;2023-04-07T02:33:20;100711.91;;;9.39;100.00
3917;BME280;1973;50.518;7.318;2023-04-07T02:35:46;100704.53;;;9.40;100.00
3917;BME280;1973;50.518;7.318;2023-04-07T02:38:13;100711.06;;;9.39;100.00
3917;BME280;1973;50.518;7.318;2023-04-07T02:40:39;100711.06;;;9.39;100.00
3917;BME280;1973;50.518;7.318;2023-04-07T02:43:06;100711.06;;;9.39;100.00
3917;BME280;1973;50.518;7.318;2023-04-07T02:45:32;100709.41;;;9.38;100.00
3917;BME280;1973;50.518;7.318;2023-04-07T02:47:59;100711.06;;;9.39;100.00
3917;BME280;1973;50.518;7.318;2023-04-07T02:50:25;100711.06;;;9.39;100.00
3917;BME280;1973;50.518;7.318;2023-04-07T02:52:52;100708.53;;;9.37;100.00
3917;BME280;1973;50.518;7.318;2023-04-07T02:55:18;100714.03;;;9.37;100.00
3917;BME280;1973;50.518;7.318;2023-04-07T02:57:45;100715.50;;;9.40;100.00
3917;BME280;1973;50.518;7.318;2023-04-07T03:00:11;100716.56;;;9.39;100.00
3917;BME280;1973;50.518;7.318;2023-04-07T03:02:38;100713.81;;;9.39;100.00
3917;BME280;1973;50.518;7.318;2023-04-07T03:05:05;100718.47;;;9.38;100.00
3917;BME280;1973;50.518;7.318;2023-04-07T03:07:32;100725.88;;;9.38;100.00
3917;BME280;1973;50.518;7.318;2023-04-07T03:09:58;100717.41;;;9.39;100.00
3917;BME280;1973;50.518;7.318;2023-04-07T03:12:25;100703.47;;;9.34;100.00
3917;BME280;1973;50.518;7.318;2023-04-07T03:14:52;100712.56;;;9.35;100.00
3917;BME280;1973;50.518;7.318;2023-04-07T03:17:18;100707.06;;;9.35;100.00
3917;BME280;1973;50.518;7.318;2023-04-07T03:19:45;100708.75;;;9.36;100.00
3917;BME280;1973;50.518;7.318;2023-04-07T03:22:12;100713.19;;;9.37;100.00
3917;BME280;1973;50.518;7.318;2023-04-07T03:24:38;100714.88;;;9.38;100.00
3917;BME280;1973;50.518;7.318;2023-04-07T03:27:06;100711.91;;;9.33;100.00
3917;BME280;1973;50.518;7.318;2023-04-07T03:29:33;100716.34;;;9.34;100.00
3917;BME280;1973;50.518;7.318;2023-04-07T03:31:59;100707.47;;;9.32;100.00
3917;BME280;1973;50.518;7.318;2023-04-07T03:34:25;100708.13;;;9.34;100.00
3917;BME280;1973;50.518;7.318;2023-04-07T03:36:52;100709.81;;;9.35;100.00
3917;BME280;1973;50.518;7.318;2023-04-07T03:39:18;100705.13;;;9.35;100.00
3917;BME280;1973;50.518;7.318;2023-04-07T03:41:45;100708.75;;;9.36;100.00
3917;BME280;1973;50.518;7.318;2023-04-07T03:44:11;100709.81;;;9.35;100.00
3917;BME280;1973;50.518;7.318;2023-04-07T03:46:38;100711.47;;;9.36;100.00
3917;BME280;1973;50.518;7.318;2023-04-07T03:49:04;100709.41;;;9.38;100.00
3917;BME280;1973;50.518;7.318;2023-04-07T03:51:31;100708.53;;;9.37;100.00
3917;BME280;1973;50.518;7.318;2023-04-07T03:53:59;100704.53;;;9.40;100.00
3917;BME280;1973;50.518;7.318;2023-04-07T03:56:26;100709.81;;;9.41;100.00
3917;BME280;1973;50.518;7.318;2023-04-07T03:58:54;100709.81;;;9.41;100.00
3917;BME280;1973;50.518;7.318;2023-04-07T04:01:20;100707.06;;;9.41;100.00
3917;BME280;1973;50.518;7.318;2023-04-07T04:03:48;100711.53;;;9.42;100.00
3917;BME280;1973;50.518;7.318;2023-04-07T04:06:15;100711.72;;;9.41;100.00
3917;BME280;1973;50.518;7.318;2023-04-07T04:08:41;100706.03;;;9.42;100.00
3917;BME280;1973;50.518;7.318;2023-04-07T04:11:08;100712.34;;;9.43;100.00
3917;BME280;1973;50.518;7.318;2023-04-07T04:13:34;100713.59;;;9.40;100.00
3917;BME280;1973;50.518;7.318;2023-04-07T04:16:01;100711.72;;;9.41;100.00
3917;BME280;1973;50.518;7.318;2023-04-07T04:18:27;100714.25;;;9.42;100.00
3917;BME280;1973;50.518;7.318;2023-04-07T04:20:54;100718.91;;;9.42;100.00
3917;BME280;1973;50.518;7.318;2023-04-07T04:23:20;100712.34;;;9.43;100.00
3917;BME280;1973;50.518;7.318;2023-04-07T04:25:47;100721.66;;;9.42;100.00
3917;BME280;1973;50.518;7.318;2023-04-07T04:28:13;100721.66;;;9.42;100.00
3917;BME280;1973;50.518;7.318;2023-04-07T04:30:40;100715.09;;;9.43;100.00
3917;BME280;1973;50.518;7.318;2023-04-07T04:33:06;100721.22;;;9.45;100.00
3917;BME280;1973;50.518;7.318;2023-04-07T04:35:33;100721.22;;;9.45;100.00
3917;BME280;1973;50.518;7.318;2023-04-07T04:37:59;100722.09;;;9.45;100.00
3917;BME280;1973;50.518;7.318;2023-04-07T04:40:26;100734.13;;;9.44;100.00
3917;BME280;1973;50.518;7.318;2023-04-07T04:42:52;100728.81;;;9.43;100.00
3917;BME280;1973;50.518;7.318;2023-04-07T04:45:18;100727.34;;;9.40;100.00
3917;BME280;1973;50.518;7.318;2023-04-07T04:47:45;100736.44;;;9.41;100.00
3917;BME280;1973;50.518;7.318;2023-04-07T04:50:11;100734.75;;;9.40;100.00
3917;BME280;1973;50.518;7.318;2023-04-07T04:52:38;100723.75;;;9.40;100.00
3917;BME280;1973;50.518;7.318;2023-04-07T04:55:05;100732.84;;;9.40;100.00
3917;BME280;1973;50.518;7.318;2023-04-07T04:57:31;100742.97;;;9.40;100.00
3917;BME280;1973;50.518;7.318;2023-04-07T05:00:01;100735.59;;;9.40;100.00
3917;BME280;1973;50.518;7.318;2023-04-07T05:02:29;100739.00;;;9.42;100.00
3917;BME280;1973;50.518;7.318;2023-04-07T05:04:56;100737.91;;;9.43;100.00
3917;BME280;1973;50.518;7.318;2023-04-07T05:07:23;100737.72;;;9.45;100.00
3917;BME280;1973;50.518;7.318;2023-04-07T05:09:49;100735.59;;;9.47;100.00
3917;BME280;1973;50.518;7.318;2023-04-07T05:12:16;100743.41;;;9.50;100.00
3917;BME280;1973;50.518;7.318;2023-04-07T05:14:42;100747.84;;;9.51;100.00
3917;BME280;1973;50.518;7.318;2023-04-07T05:17:09;100749.97;;;9.55;100.00
3917;BME280;1973;50.518;7.318;2023-04-07T05:19:35;100746.81;;;9.58;100.00
3917;BME280;1973;50.518;7.318;2023-04-07T05:22:02;100750.41;;;9.59;100.00
3917;BME280;1973;50.518;7.318;2023-04-07T05:24:28;100748.28;;;9.61;100.00
3917;BME280;1973;50.518;7.318;2023-04-07T05:26:55;100752.72;;;9.62;100.00
3917;BME280;1973;50.518;7.318;2023-04-07T05:29:22;100751.69;;;9.63;100.00
3917;BME280;1973;50.518;7.318;2023-04-07T05:31:48;100753.38;;;9.64;100.00
3917;BME280;1973;50.518;7.318;2023-04-07T05:34:15;100756.75;;;9.66;100.00
3917;BME280;1973;50.518;7.318;2023-04-07T05:36:41;100756.75;;;9.66;100.00
3917;BME280;1973;50.518;7.318;2023-04-07T05:39:08;100761.19;;;9.67;100.00
3917;BME280;1973;50.518;7.318;2023-04-07T05:41:34;100766.91;;;9.65;100.00
3917;BME280;1973;50.518;7.318;2023-04-07T05:44:01;100770.50;;;9.66;100.00
3917;BME280;1973;50.518;7.318;2023-04-07T05:46:28;100767.75;;;9.66;100.00
3917;BME280;1973;50.518;7.318;2023-04-07T05:48:55;100767.13;;;9.64;100.00
3917;BME280;1973;50.518;7.318;2023-04-07T05:51:22;100765.84;;;9.66;100.00
3917;BME280;1973;50.518;7.318;2023-04-07T05:53:48;100770.91;;;9.69;100.00
3917;BME280;1973;50.518;7.318;2023-04-07T05:56:15;100773.47;;;9.71;100.00
3917;BME280;1973;50.518;7.318;2023-04-07T05:58:42;100777.69;;;9.73;100.00
3917;BME280;1973;50.518;7.318;2023-04-07T06:01:08;100771.75;;;9.76;100.00
3917;BME280;1973;50.518;7.318;2023-04-07T06:03:35;100777.69;;;9.80;100.00
3917;BME280;1973;50.518;7.318;2023-04-07T06:06:01;100770.28;;;9.81;100.00
3917;BME280;1973;50.518;7.318;2023-04-07T06:08:28;100775.34;;;9.84;100.00
3917;BME280;1973;50.518;7.318;2023-04-07T06:10:54;100780.84;;;9.84;100.00
3917;BME280;1973;50.518;7.318;2023-04-07T06:13:21;100782.56;;;9.85;100.00
3917;BME280;1973;50.518;7.318;2023-04-07T06:15:48;100787.22;;;9.84;100.00
3917;BME280;1973;50.518;7.318;2023-04-07T06:18:14;100795.47;;;9.84;100.00
3917;BME280;1973;50.518;7.318;2023-04-07T06:20:41;100784.88;;;9.81;100.00
3917;BME280;1973;50.518;7.318;2023-04-07T06:23:07;100791.00;;;9.83;100.00
3917;BME280;1973;50.518;7.318;2023-04-07T06:25:33;100787.63;;;9.81;100.00
3917;BME280;1973;50.518;7.318;2023-04-07T06:28:00;100796.50;;;9.83;100.00
3917;BME280;1973;50.518;7.318;2023-04-07T06:30:27;100785.50;;;9.83;100.00
3917;BME280;1973;50.518;7.318;2023-04-07T06:32:53;100790.38;;;9.81;100.00
3917;BME280;1973;50.518;7.318;2023-04-07T06:35:20;100796.50;;;9.83;100.00
3917;BME280;1973;50.518;7.318;2023-04-07T06:37:47;100796.50;;;9.83;100.00
3917;BME280;1973;50.518;7.318;2023-04-07T06:40:13;100798.22;;;9.84;100.00
3917;BME280;1973;50.518;7.318;2023-04-07T06:42:40;100811.09;;;9.84;100.00
3917;BME280;1973;50.518;7.318;2023-04-07T06:45:07;100816.19;;;9.87;100.00
3917;BME280;1973;50.518;7.318;2023-04-07T06:47:33;100812.19;;;9.89;100.00
3917;BME280;1973;50.518;7.318;2023-04-07T06:50:00;100806.03;;;9.87;100.00
3917;BME280;1973;50.518;7.318;2023-04-07T06:52:26;100811.13;;;9.90;100.00
3917;BME280;1973;50.518;7.318;2023-04-07T06:54:53;100808.38;;;9.90;100.00
3917;BME280;1973;50.518;7.318;2023-04-07T06:57:19;100815.56;;;9.91;100.00
3917;BME280;1973;50.518;7.318;2023-04-07T06:59:46;100818.31;;;9.91;100.00
3917;BME280;1973;50.518;7.318;2023-04-07T07:02:12;100819.38;;;9.90;100.00
3917;BME280;1973;50.518;7.318;2023-04-07T07:04:39;100822.31;;;9.89;100.00
3917;BME280;1973;50.518;7.318;2023-04-07T07:07:05;100828.03;;;9.87;100.00
3917;BME280;1973;50.518;7.318;2023-04-07T07:09:32;100824.00;;;9.83;100.00
3917;BME280;1973;50.518;7.318;2023-04-07T07:11:58;100833.31;;;9.82;100.00
3917;BME280;1973;50.518;7.318;2023-04-07T07:14:29;100831.41;;;9.76;100.00
3917;BME280;1973;50.518;7.318;2023-04-07T07:16:55;100840.50;;;9.76;100.00
3917;BME280;1973;50.518;7.318;2023-04-07T07:19:22;100837.56;;;9.78;100.00
3917;BME280;1973;50.518;7.318;2023-04-07T07:21:48;100840.06;;;9.73;100.00
3917;BME280;1973;50.518;7.318;2023-04-07T07:24:15;100840.06;;;9.73;100.00
3917;BME280;1973;50.518;7.318;2023-04-07T07:26:42;100845.38;;;9.74;100.00
3917;BME280;1973;50.518;7.318;2023-04-07T07:29:09;100848.31;;;9.73;100.00
3917;BME280;1973;50.518;7.318;2023-04-07T07:31:36;100849.34;;;9.72;100.00
3917;BME280;1973;50.518;7.318;2023-04-07T07:34:02;100863.09;;;9.72;100.00
3917;BME280;1973;50.518;7.318;2023-04-07T07:36:29;100854.03;;;9.71;100.00
3917;BME280;1973;50.518;7.318;2023-04-07T07:38:57;100847.03;;;9.69;100.00
3917;BME280;1973;50.518;7.318;2023-04-07T07:41:23;100857.41;;;9.67;100.00
3917;BME280;1973;50.518;7.318;2023-04-07T07:43:51;100861.63;;;9.69;100.00
3917;BME280;1973;50.518;7.318;2023-04-07T07:46:18;100871.34;;;9.72;100.00
3917;BME280;1973;50.518;7.318;2023-04-07T07:48:44;100875.81;;;9.73;100.00
3917;BME280;1973;50.518;7.318;2023-04-07T07:51:11;100872.63;;;9.76;100.00
3917;BME280;1973;50.518;7.318;2023-04-07T07:53:38;100871.78;;;9.75;100.00
3917;BME280;1973;50.518;7.318;2023-04-07T07:56:04;100880.69;;;9.77;100.00
3917;BME280;1973;50.518;7.318;2023-04-07T07:58:31;100880.25;;;9.81;100.00
3917;BME280;1973;50.518;7.318;2023-04-07T08:00:57;100881.13;;;9.81;100.00
3917;BME280;1973;50.518;7.318;2023-04-07T08:03:24;100890.00;;;9.83;100.00
3917;BME280;1973;50.518;7.318;2023-04-07T08:05:50;100885.75;;;9.81;100.00
3917;BME280;1973;50.518;7.318;2023-04-07T08:08:17;100891.25;;;9.74;100.00
3917;BME280;1973;50.518;7.318;2023-04-07T08:10:43;100902.25;;;9.74;100.00
3917;BME280;1973;50.518;7.318;2023-04-07T08:13:10;100902.25;;;9.67;100.00
3917;BME280;1973;50.518;7.318;2023-04-07T08:15:38;100900.53;;;9.66;100.00
3917;BME280;1973;50.518;7.318;2023-04-07T08:18:05;100900.53;;;9.60;100.00
3917;BME280;1973;50.518;7.318;2023-04-07T08:20:32;100916.59;;;9.63;100.00
3917;BME280;1973;50.518;7.318;2023-04-07T08:22:59;100918.91;;;9.59;100.00
3917;BME280;1973;50.518;7.318;2023-04-07T08:25:28;100904.75;;;9.56;100.00
3917;BME280;1973;50.518;7.318;2023-04-07T08:27:54;100916.78;;;9.55;100.00
3917;BME280;1973;50.518;7.318;2023-04-07T08:30:21;100918.66;;;9.54;100.00
3917;BME280;1973;50.518;7.318;2023-04-07T08:32:48;100923.97;;;9.49;100.00
3917;BME280;1973;50.518;7.318;2023-04-07T08:35:14;100922.03;;;9.50;100.00
3917;BME280;1973;50.518;7.318;2023-04-07T08:37:41;100922.03;;;9.50;100.00
3917;BME280;1973;50.518;7.318;2023-04-07T08:40:09;100925.00;;;9.48;100.00
3917;BME280;1973;50.518;7.318;2023-04-07T08:42:40;100920.34;;;9.49;100.00
3917;BME280;1973;50.518;7.318;2023-04-07T08:45:08;100925.84;;;9.49;100.00
3917;BME280;1973;50.518;7.318;2023-04-07T08:47:36;100937.69;;;9.49;100.00
3917;BME280;1973;50.518;7.318;2023-04-07T08:50:06;100931.34;;;9.49;100.00
3917;BME280;1973;50.518;7.318;2023-04-07T08:52:49;100931.34;;;9.49;100.00
3917;BME280;1973;50.518;7.318;2023-04-07T08:55:18;100947.84;;;9.49;100.00
3917;BME280;1973;50.518;7.318;2023-04-07T08:57:45;100940.66;;;9.54;100.00
3917;BME280;1973;50.518;7.318;2023-04-07T09:00:12;100940.25;;;9.57;100.00
3917;BME280;1973;50.518;7.318;2023-04-07T09:02:41;100937.50;;;9.57;100.00
3917;BME280;1973;50.518;7.318;2023-04-07T09:05:13;100937.09;;;9.60;100.00
3917;BME280;1973;50.518;7.318;2023-04-07T09:07:42;100948.53;;;9.64;100.00
3917;BME280;1973;50.518;7.318;2023-04-07T09:10:09;100951.28;;;9.64;100.00
3917;BME280;1973;50.518;7.318;2023-04-07T09:12:36;100948.53;;;9.64;100.00
3917;BME280;1973;50.518;7.318;2023-04-07T09:15:05;100943.22;;;9.56;100.00
3917;BME280;1973;50.518;7.318;2023-04-07T09:17:32;100953.16;;;9.57;100.00
3917;BME280;1973;50.518;7.318;2023-04-07T09:19:59;100959.69;;;9.56;100.00
3917;BME280;1973;50.518;7.318;2023-04-07T09:22:40;100950.41;;;9.57;100.00
3917;BME280;1973;50.518;7.318;2023-04-07T09:25:14;100951.66;;;9.61;100.00
3917;BME280;1973;50.518;7.318;2023-04-07T09:30:23;100949.38;;;9.64;100.00
3917;BME280;1973;50.518;7.318;2023-04-07T09:32:50;100947.47;;;9.65;100.00
3917;BME280;1973;50.518;7.318;2023-04-07T09:35:17;100955.09;;;9.69;100.00
3917;BME280;1973;50.518;7.318;2023-04-07T09:37:50;100953.63;;;9.73;100.00
3917;BME280;1973;50.518;7.318;2023-04-07T09:40:26;100950.28;;;9.78;100.00
3917;BME280;1973;50.518;7.318;2023-04-07T09:42:53;100944.97;;;9.83;100.00
3917;BME280;1973;50.518;7.318;2023-04-07T09:45:23;100948.81;;;9.82;100.00
3917;BME280;1973;50.518;7.318;2023-04-07T09:48:04;100950.72;;;9.82;100.00
3917;BME280;1973;50.518;7.318;2023-04-07T09:50:32;100958.72;;;9.83;100.00
3917;BME280;1973;50.518;7.318;2023-04-07T09:53:00;100953.88;;;9.78;100.00
3917;BME280;1973;50.518;7.318;2023-04-07T09:55:29;100957.47;;;9.79;100.00
3917;BME280;1973;50.518;7.318;2023-04-07T09:57:56;100963.59;;;9.81;100.00
3917;BME280;1973;50.518;7.318;2023-04-07T10:00:23;100957.25;;;9.81;100.00
3917;BME280;1973;50.518;7.318;2023-04-07T10:02:50;100966.59;;;9.86;100.00
3917;BME280;1973;50.518;7.318;2023-04-07T10:05:18;100962.31;;;9.84;100.00
3917;BME280;1973;50.518;7.318;2023-04-07T10:07:48;100968.69;;;9.84;100.00
3917;BME280;1973;50.518;7.318;2023-04-07T10:10:15;100965.31;;;9.82;100.00
3917;BME280;1973;50.518;7.318;2023-04-07T10:12:42;100965.75;;;9.86;100.00
3917;BME280;1973;50.518;7.318;2023-04-07T10:15:11;100973.38;;;9.90;100.00
3917;BME280;1973;50.518;7.318;2023-04-07T10:17:45;100969.13;;;9.88;100.00
3917;BME280;1973;50.518;7.318;2023-04-07T10:20:16;100967.47;;;9.93;100.00
3917;BME280;1973;50.518;7.318;2023-04-07T10:22:44;100978.47;;;10.00;100.00
3917;BME280;1973;50.518;7.318;2023-04-07T10:25:13;100981.03;;;10.01;100.00
3917;BME280;1973;50.518;7.318;2023-04-07T10:27:46;100981.03;;;10.08;100.00
3917;BME280;1973;50.518;7.318;2023-04-07T10:30:29;100986.31;;;10.09;100.00
3917;BME280;1973;50.518;7.318;2023-04-07T10:32:57;100975.56;;;10.14;100.00
3917;BME280;1973;50.518;7.318;2023-04-07T10:35:24;100974.72;;;10.20;100.00
3917;BME280;1973;50.518;7.318;2023-04-07T10:40:34;100986.59;;;10.27;100.00
3917;BME280;1973;50.518;7.318;2023-04-07T10:43:02;100986.59;;;10.27;100.00
3917;BME280;1973;50.518;7.318;2023-04-07T10:48:17;100995.50;;;10.23;100.00
3917;BME280;1973;50.518;7.318;2023-04-07T10:50:45;100996.97;;;10.25;100.00
3917;BME280;1973;50.518;7.318;2023-04-07T10:53:14;101003.94;;;10.21;100.00
3917;BME280;1973;50.518;7.318;2023-04-07T10:55:45;101000.16;;;10.22;100.00
3917;BME280;1973;50.518;7.318;2023-04-07T10:58:20;100992.94;;;10.21;100.00
3917;BME280;1973;50.518;7.318;2023-04-07T11:03:27;100999.53;;;10.27;100.00
3917;BME280;1973;50.518;7.318;2023-04-07T11:06:04;101003.53;;;10.31;100.00
3917;BME280;1973;50.518;7.318;2023-04-07T11:08:39;101001.44;;;10.40;100.00
3917;BME280;1973;50.518;7.318;2023-04-07T11:11:08;100999.53;;;10.47;100.00
3917;BME280;1973;50.518;7.318;2023-04-07T11:16:06;100995.97;;;10.59;100.00
3917;BME280;1973;50.518;7.318;2023-04-07T11:18:35;101005.91;;;10.67;100.00
3917;BME280;1973;50.518;7.318;2023-04-07T11:21:03;100998.94;;;10.71;100.00
3917;BME280;1973;50.518;7.318;2023-04-07T11:23:42;101001.88;;;10.76;100.00
3917;BME280;1973;50.518;7.318;2023-04-07T11:26:10;101001.06;;;10.82;100.00
3917;BME280;1973;50.518;7.318;2023-04-07T11:28:50;101009.50;;;10.87;100.00
3917;BME280;1973;50.518;7.318;2023-04-07T11:31:38;101005.28;;;10.91;100.00
3917;BME280;1973;50.518;7.318;2023-04-07T11:34:05;101001.47;;;10.92;100.00
3917;BME280;1973;50.518;7.318;2023-04-07T11:36:36;101012.91;;;10.96;100.00
3917;BME280;1973;50.518;7.318;2023-04-07T11:39:03;101013.75;;;10.96;100.00
3917;BME280;1973;50.518;7.318;2023-04-07T11:41:31;101011.00;;;10.96;100.00
3917;BME280;1973;50.518;7.318;2023-04-07T11:44:05;101019.25;;;10.96;100.00
3917;BME280;1973;50.518;7.318;2023-04-07T11:46:31;101021.16;;;10.96;100.00
3917;BME280;1973;50.518;7.318;2023-04-07T11:49:13;101017.13;;;10.98;100.00
3917;BME280;1973;50.518;7.318;2023-04-07T11:51:42;101015.88;;;11.01;100.00
3917;BME280;1973;50.518;7.318;2023-04-07T11:54:09;101023.91;;;11.02;100.00
3917;BME280;1973;50.518;7.318;2023-04-07T11:56:44;101019.25;;;11.03;100.00
3917;BME280;1973;50.518;7.318;2023-04-07T11:59:22;101020.72;;;11.05;100.00
3917;BME280;1973;50.518;7.318;2023-04-07T12:01:50;101021.56;;;11.06;100.00
3917;BME280;1973;50.518;7.318;2023-04-07T12:04:20;101019.88;;;11.11;100.00
3917;BME280;1973;50.518;7.318;2023-04-07T12:06:47;101021.16;;;11.15;100.00
3917;BME280;1973;50.518;7.318;2023-04-07T12:09:33;101021.53;;;11.32;100.00
3917;BME280;1973;50.518;7.318;2023-04-07T12:12:04;101021.53;;;11.45;100.00
3917;BME280;1973;50.518;7.318;2023-04-07T12:14:33;101019.13;;;11.62;100.00
3917;BME280;1973;50.518;7.318;2023-04-07T12:17:00;101016.50;;;11.87;100.00
3917;BME280;1973;50.518;7.318;2023-04-07T12:19:30;101009.63;;;12.09;100.00
3917;BME280;1973;50.518;7.318;2023-04-07T12:21:58;101016.53;;;12.25;100.00
3917;BME280;1973;50.518;7.318;2023-04-07T12:24:25;101017.28;;;12.45;100.00
3917;BME280;1973;50.518;7.318;2023-04-07T12:26:52;101017.38;;;12.56;100.00
3917;BME280;1973;50.518;7.318;2023-04-07T12:29:18;101016.13;;;12.59;100.00
3917;BME280;1973;50.518;7.318;2023-04-07T12:31:45;101015.22;;;12.65;100.00
3917;BME280;1973;50.518;7.318;2023-04-07T12:34:15;101023.91;;;12.68;100.00
3917;BME280;1973;50.518;7.318;2023-04-07T12:36:42;101019.03;;;12.64;100.00
3917;BME280;1973;50.518;7.318;2023-04-07T12:39:09;101025.69;;;12.56;100.00
3917;BME280;1973;50.518;7.318;2023-04-07T12:41:36;101017.91;;;12.47;100.00
3917;BME280;1973;50.518;7.318;2023-04-07T12:44:04;101016.28;;;12.33;100.00
3917;BME280;1973;50.518;7.318;2023-04-07T12:46:31;101026.72;;;12.24;100.00
3917;BME280;1973;50.518;7.318;2023-04-07T12:48:57;101026.53;;;12.26;100.00
3917;BME280;1973;50.518;7.318;2023-04-07T12:51:24;101035.22;;;12.29;100.00
3917;BME280;1973;50.518;7.318;2023-04-07T12:53:52;101030.72;;;12.35;100.00
3917;BME280;1973;50.518;7.318;2023-04-07T12:56:19;101024.94;;;12.43;100.00
3917;BME280;1973;50.518;7.318;2023-04-07T12:58:47;101034.59;;;12.58;100.00
3917;BME280;1973;50.518;7.318;2023-04-07T13:01:14;101025.38;;;12.71;100.00
3917;BME280;1973;50.518;7.318;2023-04-07T13:03:40;101025.88;;;12.86;100.00
3917;BME280;1973;50.518;7.318;2023-04-07T13:06:07;101029.47;;;12.93;100.00
3917;BME280;1973;50.518;7.318;2023-04-07T13:08:33;101026.84;;;12.98;100.00
3917;BME280;1973;50.518;7.318;2023-04-07T13:11:00;101027.47;;;13.00;100.00
3917;BME280;1973;50.518;7.318;2023-04-07T13:13:26;101033.69;;;12.96;100.00
3917;BME280;1973;50.518;7.318;2023-04-07T13:15:53;101039.16;;;12.78;100.00
3917;BME280;1973;50.518;7.318;2023-04-07T13:18:19;101036.69;;;12.63;100.00
3917;BME280;1973;50.518;7.318;2023-04-07T13:20:47;101036.78;;;12.50;100.00
3917;BME280;1973;50.518;7.318;2023-04-07T13:23:33;101043.00;;;12.39;100.00
3917;BME280;1973;50.518;7.318;2023-04-07T13:26:08;101047.47;;;12.40;100.00
3917;BME280;1973;50.518;7.318;2023-04-07T13:28:35;101034.09;;;12.37;100.00